createdAt,value
2022-08-19T05:40:07.729Z,18.60
2022-08-19T05:42:36.134Z,18.50
2022-08-19T05:45:05.503Z,18.60
2022-08-19T05:47:34.094Z,18.70
2022-08-19T05:50:02.900Z,18.90
2022-08-19T05:52:33.573Z,19.00
2022-08-19T05:55:01.818Z,19.10
2022-08-19T05:57:31.874Z,19.20
2022-08-19T06:00:01.396Z,19.30
2022-08-19T06:02:31.779Z,19.30
2022-08-19T06:05:00.056Z,19.40
2022-08-19T06:07:28.461Z,19.40
2022-08-19T06:10:00.314Z,19.50
2022-08-19T06:12:34.134Z,19.60
2022-08-19T06:15:03.105Z,19.60
2022-08-19T06:17:32.511Z,19.60
2022-08-19T06:20:00.985Z,19.60
2022-08-19T06:22:29.837Z,19.60
2022-08-19T06:24:58.475Z,19.70
2022-08-19T06:27:26.741Z,19.70
2022-08-19T06:29:56.187Z,19.70
2022-08-19T06:32:24.487Z,19.80
2022-08-19T06:34:52.547Z,19.80
2022-08-19T06:37:22.666Z,19.80
2022-08-19T06:39:51.579Z,19.80
2022-08-19T06:42:19.645Z,19.90
2022-08-19T06:44:53.218Z,19.90
2022-08-19T06:47:28.446Z,20.00
2022-08-19T06:50:03.025Z,20.00
2022-08-19T06:52:34.125Z,20.00
2022-08-19T06:55:06.314Z,20.00
2022-08-19T06:57:35.921Z,20.10
2022-08-19T07:00:07.085Z,20.10
2022-08-19T07:02:38.590Z,20.10
2022-08-19T07:05:07.781Z,20.10
2022-08-19T07:07:36.159Z,20.20
2022-08-19T07:10:07.702Z,20.10
2022-08-19T07:12:38.058Z,20.20
2022-08-19T07:15:09.517Z,20.20
2022-08-19T07:17:40.315Z,20.10
2022-08-19T07:20:11.860Z,20.10
2022-08-19T07:22:40.378Z,20.20
2022-08-19T07:25:10.428Z,20.20
2022-08-19T07:27:39.556Z,20.20
2022-08-19T07:30:12.315Z,20.20
2022-08-19T07:32:43.385Z,20.30
2022-08-19T07:35:11.809Z,20.30
2022-08-19T07:37:45.157Z,20.40
2022-08-19T07:40:14.391Z,20.40
2022-08-19T07:42:43.336Z,20.50
2022-08-19T07:45:11.981Z,20.50
2022-08-19T07:47:48.935Z,20.50
2022-08-19T07:50:21.248Z,20.50
2022-08-19T07:52:50.529Z,20.60
2022-08-19T07:55:41.446Z,20.70
2022-08-19T07:58:10.023Z,20.70
2022-08-19T08:00:38.776Z,20.80
2022-08-19T08:03:09.708Z,20.80
2022-08-19T08:06:00.625Z,20.90
2022-08-19T08:08:48.387Z,20.80
2022-08-19T08:11:20.504Z,20.90
2022-08-19T08:14:01.433Z,21.00
2022-08-19T08:16:35.123Z,21.10
2022-08-19T08:19:20.200Z,21.30
2022-08-19T08:21:54.528Z,21.30
2022-08-19T08:24:22.807Z,21.40
2022-08-19T08:26:57.689Z,21.50
2022-08-19T08:29:26.777Z,21.60
2022-08-19T08:32:03.588Z,21.80
2022-08-19T08:34:33.076Z,21.80
2022-08-19T08:37:01.143Z,21.80
2022-08-19T08:39:29.928Z,21.80
2022-08-19T08:42:09.826Z,21.90
2022-08-19T08:44:51.207Z,21.90
2022-08-19T08:47:22.825Z,22.00
2022-08-19T08:49:56.732Z,22.00
2022-08-19T08:52:31.843Z,22.10
2022-08-19T08:55:10.297Z,22.10
2022-08-19T08:57:46.528Z,22.20
2022-08-19T09:00:21.934Z,22.30
2022-08-19T09:02:51.603Z,22.40
2022-08-19T09:05:22.751Z,22.40
2022-08-19T09:08:04.221Z,22.60
2022-08-19T09:10:44.187Z,22.60
2022-08-19T09:13:23.183Z,22.70
2022-08-19T09:15:56.568Z,22.80
2022-08-19T09:18:24.679Z,22.80
2022-08-19T09:20:59.410Z,22.80
2022-08-19T09:23:27.489Z,22.70
2022-08-19T09:25:55.772Z,22.60
2022-08-19T09:28:27.010Z,22.50
2022-08-19T09:30:55.537Z,22.50
2022-08-19T09:33:23.723Z,22.40
2022-08-19T09:35:53.530Z,22.40
2022-08-19T09:38:25.919Z,22.40
2022-08-19T09:40:53.928Z,22.40
2022-08-19T09:43:33.028Z,22.40
2022-08-19T09:46:02.362Z,22.30
2022-08-19T09:48:30.503Z,22.30
2022-08-19T09:51:05.583Z,22.20
2022-08-19T09:53:34.990Z,22.20
2022-08-19T09:56:06.872Z,22.20
2022-08-19T09:58:36.688Z,22.30
2022-08-19T10:01:06.261Z,22.40
2022-08-19T10:03:36.486Z,22.60
2022-08-19T10:06:15.200Z,22.80
2022-08-19T10:08:49.915Z,23.00
2022-08-19T10:11:27.278Z,23.20
2022-08-19T10:13:55.821Z,23.40
2022-08-19T10:16:30.043Z,23.50
2022-08-19T10:18:59.379Z,23.50
2022-08-19T10:21:29.545Z,23.60
2022-08-19T10:24:05.005Z,23.60
2022-08-19T10:26:35.767Z,23.60
2022-08-19T10:29:06.017Z,23.60
2022-08-19T10:32:02.024Z,23.60
2022-08-19T10:34:28.198Z,23.60
2022-08-19T10:37:01.078Z,23.60
2022-08-19T10:39:40.985Z,23.60
2022-08-19T10:42:14.016Z,23.60
2022-08-19T10:44:42.806Z,23.50
2022-08-19T10:47:24.396Z,23.50
2022-08-19T10:50:12.767Z,23.60
2022-08-19T10:52:49.530Z,23.80
2022-08-19T10:55:38.912Z,23.90
2022-08-19T10:58:12.588Z,23.80
2022-08-19T11:00:41.549Z,23.90
2022-08-19T11:03:09.818Z,24.00
2022-08-19T11:05:40.346Z,24.00
2022-08-19T11:08:23.006Z,24.00
2022-08-19T11:11:00.364Z,23.90
2022-08-19T11:13:28.619Z,24.00
2022-08-19T11:16:06.544Z,23.90
2022-08-19T11:18:35.783Z,23.90
2022-08-19T11:21:12.380Z,23.90
2022-08-19T11:23:40.553Z,24.00
2022-08-19T11:26:10.281Z,24.10
2022-08-19T11:28:38.677Z,24.30
2022-08-19T11:31:11.016Z,24.50
2022-08-19T11:33:39.370Z,24.60
2022-08-19T11:36:08.503Z,24.60
2022-08-19T11:38:36.826Z,24.70
2022-08-19T11:41:08.302Z,24.60
2022-08-19T11:43:38.548Z,24.50
2022-08-19T11:46:08.779Z,24.50
2022-08-19T11:48:37.722Z,24.50
2022-08-19T11:51:08.259Z,24.40
2022-08-19T11:53:36.672Z,24.10
2022-08-19T11:56:06.193Z,23.90
2022-08-19T11:58:35.169Z,23.70
2022-08-19T12:01:07.888Z,23.50
2022-08-19T12:03:37.513Z,23.40
2022-08-19T12:06:07.277Z,23.30
2022-08-19T12:08:35.691Z,23.10
2022-08-19T12:11:03.863Z,23.00
2022-08-19T12:13:32.854Z,23.00
2022-08-19T12:16:00.856Z,22.90
2022-08-19T12:18:30.342Z,22.90
2022-08-19T12:20:58.311Z,22.90
2022-08-19T12:23:26.340Z,22.90
2022-08-19T12:25:55.581Z,23.00
2022-08-19T12:28:26.241Z,23.20
2022-08-19T12:30:54.325Z,23.60
2022-08-19T12:33:26.043Z,23.80
2022-08-19T12:35:55.504Z,24.00
2022-08-19T12:38:25.327Z,24.10
2022-08-19T12:40:57.101Z,24.20
2022-08-19T12:43:27.829Z,24.30
2022-08-19T12:45:55.863Z,24.30
2022-08-19T12:48:34.549Z,24.40
2022-08-19T12:51:09.504Z,24.40
2022-08-19T12:53:39.255Z,24.30
2022-08-19T12:56:11.550Z,24.20
2022-08-19T12:58:50.198Z,24.30
2022-08-19T13:01:20.436Z,24.60
2022-08-19T13:03:53.124Z,24.80
2022-08-19T13:06:22.845Z,24.90
2022-08-19T13:08:50.924Z,24.90
2022-08-19T13:11:21.308Z,24.90
2022-08-19T13:13:52.045Z,24.90
2022-08-19T13:16:23.112Z,24.90
2022-08-19T13:18:52.939Z,24.90
2022-08-19T13:21:24.314Z,24.80
2022-08-19T13:23:53.446Z,24.80
2022-08-19T13:26:21.624Z,24.80
2022-08-19T13:29:07.169Z,24.90
2022-08-19T13:31:54.834Z,25.20
2022-08-19T13:34:30.790Z,25.70
2022-08-19T13:37:00.794Z,26.10
2022-08-19T13:39:28.992Z,26.20
2022-08-19T13:41:57.247Z,26.20
2022-08-19T13:44:25.536Z,26.50
2022-08-19T13:46:54.533Z,26.80
2022-08-19T13:49:24.182Z,26.90
2022-08-19T13:51:52.492Z,27.30
2022-08-19T13:54:22.281Z,27.70
2022-08-19T13:56:50.538Z,28.00
2022-08-19T13:59:18.890Z,28.50
2022-08-19T14:01:47.099Z,28.20
2022-08-19T14:04:15.195Z,27.70
2022-08-19T14:06:43.289Z,27.40
2022-08-19T14:09:11.400Z,27.40
2022-08-19T14:11:40.921Z,27.30
2022-08-19T14:14:11.318Z,27.00
2022-08-19T14:16:41.567Z,26.90
2022-08-19T14:19:09.633Z,26.90
2022-08-19T14:21:41.469Z,26.80
2022-08-19T14:24:10.428Z,26.80
2022-08-19T14:26:39.958Z,26.90
2022-08-19T14:29:08.037Z,26.80
2022-08-19T14:31:36.122Z,26.70
2022-08-19T14:34:04.191Z,26.60
2022-08-19T14:36:37.408Z,26.40
2022-08-19T14:39:07.645Z,26.30
2022-08-19T14:41:36.097Z,26.20
2022-08-19T14:44:05.711Z,26.00
2022-08-19T14:46:33.985Z,25.90
2022-08-19T14:49:02.017Z,25.80
2022-08-19T14:51:37.795Z,25.60
2022-08-19T14:54:06.221Z,25.60
2022-08-19T14:56:34.306Z,25.60
2022-08-19T14:59:02.669Z,25.50
2022-08-19T15:01:32.302Z,25.50
2022-08-19T15:04:00.659Z,25.50
2022-08-19T15:06:30.005Z,25.50
2022-08-19T15:09:02.050Z,25.40
2022-08-19T15:11:33.877Z,25.50
2022-08-19T15:14:02.597Z,25.40
2022-08-19T15:16:32.096Z,25.50
2022-08-19T15:19:01.810Z,25.50
2022-08-19T15:21:31.335Z,25.50
2022-08-19T15:24:01.532Z,25.40
2022-08-19T15:26:33.204Z,25.40
2022-08-19T15:29:02.117Z,25.30
2022-08-19T15:31:35.109Z,25.30
2022-08-19T15:34:06.915Z,25.40
2022-08-19T15:36:36.090Z,25.40
2022-08-19T15:39:06.395Z,25.40
2022-08-19T15:41:34.900Z,25.30
2022-08-19T15:44:09.124Z,25.10
2022-08-19T15:46:41.144Z,25.10
2022-08-19T15:49:10.294Z,25.10
2022-08-19T15:51:39.397Z,25.00
2022-08-19T15:54:09.982Z,24.90
2022-08-19T15:57:01.411Z,24.90
2022-08-19T15:59:47.824Z,24.90
2022-08-19T16:02:37.162Z,24.90
2022-08-19T16:05:24.447Z,24.90
2022-08-19T16:07:52.522Z,24.90
2022-08-19T16:10:27.410Z,24.90
2022-08-19T16:12:57.271Z,24.90
2022-08-19T16:15:27.824Z,24.90
2022-08-19T16:17:58.222Z,24.90
2022-08-19T16:20:27.933Z,24.80
2022-08-19T16:22:58.571Z,24.90
2022-08-19T16:25:29.016Z,24.90
2022-08-19T16:28:07.334Z,24.80
2022-08-19T16:30:37.904Z,24.80
2022-08-19T16:33:07.653Z,24.80
2022-08-19T16:35:35.901Z,24.80
2022-08-19T16:38:04.151Z,24.70
2022-08-19T16:40:33.529Z,24.60
2022-08-19T16:43:03.002Z,24.50
2022-08-19T16:45:31.634Z,24.60
2022-08-19T16:47:59.733Z,24.60
2022-08-19T16:50:48.282Z,24.50
2022-08-19T16:53:18.185Z,24.50
2022-08-19T16:55:50.879Z,24.50
2022-08-19T16:58:19.535Z,24.50
2022-08-19T17:00:48.726Z,24.50
2022-08-19T17:03:18.382Z,24.40
2022-08-19T17:05:49.463Z,24.40
2022-08-19T17:08:18.521Z,24.40
2022-08-19T17:11:07.875Z,24.30
2022-08-19T17:13:36.178Z,24.20
2022-08-19T17:16:04.785Z,24.20
2022-08-19T17:18:33.406Z,24.10
2022-08-19T17:21:03.808Z,24.10
2022-08-19T17:23:43.272Z,24.10
2022-08-19T17:26:16.747Z,24.20
2022-08-19T17:28:47.275Z,24.20
2022-08-19T17:31:15.562Z,24.10
2022-08-19T17:33:48.111Z,24.00
2022-08-19T17:36:18.544Z,23.90
2022-08-19T17:38:46.863Z,23.80
2022-08-19T17:41:14.988Z,23.80
2022-08-19T17:43:44.164Z,23.80
2022-08-19T17:46:17.568Z,23.80
2022-08-19T17:48:52.221Z,23.80
2022-08-19T17:51:25.439Z,23.70
2022-08-19T17:53:55.380Z,23.70
2022-08-19T17:56:24.950Z,23.70
2022-08-19T17:59:00.730Z,23.60
2022-08-19T18:01:43.017Z,23.50
2022-08-19T18:04:19.771Z,23.60
2022-08-19T18:06:53.547Z,23.60
2022-08-19T18:09:24.554Z,23.60
2022-08-19T18:11:54.442Z,23.60
2022-08-19T18:14:33.345Z,23.40
2022-08-19T18:17:05.607Z,23.40
2022-08-19T18:19:41.893Z,23.30
2022-08-19T18:22:13.810Z,23.20
2022-08-19T18:24:45.821Z,23.20
2022-08-19T18:27:14.864Z,23.20
2022-08-19T18:29:43.457Z,23.20
2022-08-19T18:32:14.259Z,23.20
2022-08-19T18:34:44.494Z,23.30
2022-08-19T18:37:16.395Z,23.20
2022-08-19T18:40:07.465Z,23.10
2022-08-19T18:42:53.088Z,23.00
2022-08-19T18:45:38.944Z,23.10
2022-08-19T18:48:29.250Z,23.00
2022-08-19T18:50:59.638Z,23.00
2022-08-19T18:53:34.025Z,23.00
2022-08-19T18:56:03.473Z,22.90
2022-08-19T18:58:34.985Z,22.80
2022-08-19T19:01:11.657Z,22.70
2022-08-19T19:03:43.012Z,22.70
2022-08-19T19:06:11.131Z,22.80
2022-08-19T19:08:41.049Z,22.80
2022-08-19T19:11:09.537Z,22.70
2022-08-19T19:13:39.769Z,22.70
2022-08-19T19:16:12.481Z,22.70
2022-08-19T19:18:40.737Z,22.70
2022-08-19T19:21:09.901Z,22.70
2022-08-19T19:23:40.968Z,22.70
2022-08-19T19:26:11.179Z,22.70
2022-08-19T19:28:44.019Z,22.70
2022-08-19T19:31:15.147Z,22.70
2022-08-19T19:33:44.535Z,22.70
2022-08-19T19:36:13.818Z,22.60
2022-08-19T19:38:48.249Z,22.60
2022-08-19T19:41:23.503Z,22.50
2022-08-19T19:44:09.887Z,22.50
2022-08-19T19:46:42.679Z,22.50
2022-08-19T19:49:11.238Z,22.40
2022-08-19T19:51:39.529Z,22.40
2022-08-19T19:54:13.626Z,22.40
2022-08-19T19:56:45.363Z,22.40
2022-08-19T19:59:14.130Z,22.30
2022-08-19T20:01:46.091Z,22.30
2022-08-19T20:04:15.842Z,22.30
2022-08-19T20:06:44.112Z,22.30
2022-08-19T20:09:14.220Z,22.30
2022-08-19T20:11:47.568Z,22.20
2022-08-19T20:14:17.772Z,22.20
2022-08-19T20:16:47.024Z,22.10
2022-08-19T20:19:17.022Z,22.10
2022-08-19T20:21:50.784Z,22.00
2022-08-19T20:24:23.880Z,21.90
2022-08-19T20:26:54.034Z,21.80
2022-08-19T20:29:39.225Z,21.80
2022-08-19T20:32:10.833Z,21.70
2022-08-19T20:34:39.348Z,21.70
2022-08-19T20:37:09.445Z,21.60
2022-08-19T20:39:38.256Z,21.60
2022-08-19T20:42:08.191Z,21.50
2022-08-19T20:44:37.960Z,21.50
2022-08-19T20:47:06.375Z,21.50
2022-08-19T20:49:35.270Z,21.30
2022-08-19T20:52:05.011Z,21.30
2022-08-19T20:54:33.401Z,21.30
2022-08-19T20:57:03.749Z,21.30
2022-08-19T20:59:33.509Z,21.20
2022-08-19T21:02:01.690Z,21.20
2022-08-19T21:04:30.095Z,21.10
2022-08-19T21:06:58.204Z,21.10
2022-08-19T21:09:26.391Z,21.10
2022-08-19T21:11:54.607Z,21.10
2022-08-19T21:14:23.129Z,21.10
2022-08-19T21:16:52.665Z,21.00
2022-08-19T21:19:24.132Z,20.90
2022-08-19T21:21:52.590Z,20.80
2022-08-19T21:24:20.670Z,20.80
2022-08-19T21:26:51.355Z,20.70
2022-08-19T21:29:20.160Z,20.70
2022-08-19T21:31:49.071Z,20.50
2022-08-19T21:34:18.837Z,20.50
2022-08-19T21:36:47.106Z,20.50
2022-08-19T21:39:15.245Z,20.50
2022-08-19T21:41:43.841Z,20.50
2022-08-19T21:44:12.219Z,20.50
2022-08-19T21:46:40.316Z,20.50
2022-08-19T21:49:08.304Z,20.40
2022-08-19T21:51:38.418Z,20.40
2022-08-19T21:54:06.735Z,20.30
2022-08-19T21:56:35.094Z,20.30
2022-08-19T21:59:03.158Z,20.30
2022-08-19T22:01:31.224Z,20.20
2022-08-19T22:03:59.406Z,20.20
2022-08-19T22:06:27.637Z,20.10
2022-08-19T22:08:57.418Z,20.10
2022-08-19T22:11:26.170Z,20.10
2022-08-19T22:13:56.519Z,20.00
2022-08-19T22:16:25.295Z,20.10
2022-08-19T22:18:54.133Z,20.00
2022-08-19T22:21:40.832Z,20.00
2022-08-19T22:24:11.075Z,20.00
2022-08-19T22:26:39.253Z,19.90
2022-08-19T22:29:07.550Z,19.80
